createdAt,value
2022-08-18T00:00:26.199Z,19.397583
2022-08-18T00:01:35.994Z,19.387512
2022-08-18T00:02:49.765Z,19.387512
2022-08-18T00:03:59.581Z,19.397583
2022-08-18T00:05:07.142Z,19.387512
2022-08-18T00:06:16.861Z,19.397583
2022-08-18T00:07:27.575Z,19.387512
2022-08-18T00:08:38.651Z,19.387512
2022-08-18T00:09:47.069Z,19.397583
2022-08-18T00:10:55.849Z,19.387512
2022-08-18T00:12:04.580Z,19.397583
2022-08-18T00:13:14.321Z,19.367371
2022-08-18T00:14:23.156Z,19.387512
2022-08-18T00:15:31.912Z,19.337158
2022-08-18T00:16:42.633Z,19.327087
2022-08-18T00:17:51.446Z,19.337158
2022-08-18T00:19:03.679Z,19.337158
2022-08-18T00:20:10.909Z,19.327087
2022-08-18T00:21:19.646Z,19.306946
2022-08-18T00:22:29.524Z,19.286804
2022-08-18T00:23:37.345Z,19.286804
2022-08-18T00:24:48.023Z,19.296875
2022-08-18T00:25:56.900Z,19.296875
2022-08-18T00:27:04.653Z,19.306946
2022-08-18T00:28:14.465Z,19.266663
2022-08-18T00:29:24.199Z,19.286804
2022-08-18T00:30:31.932Z,19.296875
2022-08-18T00:31:41.703Z,19.286804
2022-08-18T00:32:51.621Z,19.266663
2022-08-18T00:34:00.225Z,19.296875
2022-08-18T00:35:09.970Z,19.306946
2022-08-18T00:36:18.665Z,19.296875
2022-08-18T00:37:28.409Z,19.306946
2022-08-18T00:38:37.201Z,19.306946
2022-08-18T00:39:46.396Z,19.327087
2022-08-18T00:40:54.744Z,19.306946
2022-08-18T00:42:02.500Z,19.286804
2022-08-18T00:43:11.268Z,19.296875
2022-08-18T00:44:21.063Z,19.306946
2022-08-18T00:45:28.848Z,19.296875
2022-08-18T00:46:38.649Z,19.296875
2022-08-18T00:47:48.401Z,19.296875
2022-08-18T00:48:57.154Z,19.286804
2022-08-18T00:50:06.974Z,19.286804
2022-08-18T00:51:16.699Z,19.286804
2022-08-18T00:52:26.521Z,19.286804
2022-08-18T00:53:36.333Z,19.296875
2022-08-18T00:54:44.098Z,19.286804
2022-08-18T00:55:54.793Z,19.266663
2022-08-18T00:57:03.654Z,19.266663
2022-08-18T00:58:11.409Z,19.23645
2022-08-18T00:59:21.140Z,19.216309
2022-08-18T01:00:29.031Z,19.23645
2022-08-18T01:01:38.690Z,19.256592
2022-08-18T01:02:48.624Z,19.23645
2022-08-18T01:03:56.378Z,19.23645
2022-08-18T01:05:06.172Z,19.206238
2022-08-18T01:06:13.920Z,19.206238
2022-08-18T01:07:23.751Z,19.216309
2022-08-18T01:08:32.575Z,19.186096
2022-08-18T01:09:42.327Z,19.186096
2022-08-18T01:10:52.147Z,19.176025
2022-08-18T01:11:59.904Z,19.186096
2022-08-18T01:13:10.622Z,19.186096
2022-08-18T01:14:19.530Z,19.176025
2022-08-18T01:15:30.128Z,19.155884
2022-08-18T01:16:38.025Z,19.155884
2022-08-18T01:17:48.865Z,19.155884
2022-08-18T01:18:56.618Z,19.145813
2022-08-18T01:20:06.384Z,19.155884
2022-08-18T01:21:15.146Z,19.155884
2022-08-18T01:22:23.840Z,19.145813
2022-08-18T01:23:33.613Z,19.135742
2022-08-18T01:24:41.351Z,19.135742
2022-08-18T01:25:51.149Z,19.115601
2022-08-18T01:26:59.906Z,19.135742
2022-08-18T01:28:09.674Z,19.115601
2022-08-18T01:29:19.636Z,19.10553
2022-08-18T01:30:29.186Z,19.115601
2022-08-18T01:31:38.993Z,19.115601
2022-08-18T01:32:48.727Z,19.135742
2022-08-18T01:33:57.493Z,19.115601
2022-08-18T01:35:07.217Z,19.10553
2022-08-18T01:36:17.067Z,19.065247
2022-08-18T01:37:25.793Z,19.075317
2022-08-18T01:38:35.589Z,19.065247
2022-08-18T01:41:00.151Z,19.004822
2022-08-18T01:41:00.690Z,19.035034
2022-08-18T01:42:06.810Z,19.004822
2022-08-18T01:43:14.573Z,19.004822
2022-08-18T01:44:24.347Z,19.004822
2022-08-18T01:45:33.117Z,18.994751
2022-08-18T01:46:40.907Z,18.994751
2022-08-18T01:47:50.630Z,18.994751
2022-08-18T01:48:58.573Z,19.004822
2022-08-18T01:50:07.279Z,18.964539
2022-08-18T01:51:17.015Z,18.964539
2022-08-18T01:52:26.747Z,18.954468
2022-08-18T01:53:36.487Z,18.934326
2022-08-18T01:54:45.251Z,18.954468
2022-08-18T01:55:55.002Z,18.934326
2022-08-18T01:57:04.755Z,18.924255
2022-08-18T01:58:12.510Z,18.904114
2022-08-18T01:59:22.256Z,18.883972
2022-08-18T02:00:31.999Z,18.863831
2022-08-18T02:01:41.540Z,18.843689
2022-08-18T02:02:58.250Z,18.833618
2022-08-18T02:04:23.681Z,18.803406
2022-08-18T02:05:10.999Z,18.803406
2022-08-18T02:06:26.367Z,18.803406
2022-08-18T02:07:32.629Z,18.803406
2022-08-18T02:08:43.740Z,18.773193
2022-08-18T02:09:53.072Z,18.773193
2022-08-18T02:11:02.845Z,18.753052
2022-08-18T02:12:12.724Z,18.753052
2022-08-18T02:13:22.482Z,18.73291
2022-08-18T02:14:31.735Z,18.73291
2022-08-18T02:15:41.552Z,18.702698
2022-08-18T02:16:49.814Z,18.702698
2022-08-18T02:17:59.740Z,18.682556
2022-08-18T02:19:09.481Z,18.682556
2022-08-18T02:20:18.232Z,18.682556
2022-08-18T02:21:27.998Z,18.662415
2022-08-18T02:22:36.721Z,18.652344
2022-08-18T02:23:49.282Z,18.652344
2022-08-18T02:24:55.240Z,18.60199
2022-08-18T02:26:03.978Z,18.60199
2022-08-18T02:27:12.727Z,18.591919
2022-08-18T02:28:22.867Z,18.581848
2022-08-18T02:29:32.289Z,18.591919
2022-08-18T02:30:42.032Z,18.581848
2022-08-18T02:31:51.775Z,18.561707
2022-08-18T02:32:59.500Z,18.551636
2022-08-18T02:34:09.298Z,18.551636
2022-08-18T02:35:19.080Z,18.531494
2022-08-18T02:36:27.836Z,18.531494
2022-08-18T02:37:37.713Z,18.531494
2022-08-18T02:38:48.736Z,18.521423
2022-08-18T02:39:57.331Z,18.471069
2022-08-18T02:41:04.982Z,18.471069
2022-08-18T02:42:13.725Z,18.491211
2022-08-18T02:43:23.486Z,18.450928
2022-08-18T02:44:33.211Z,18.450928
2022-08-18T02:45:41.967Z,18.430786
2022-08-18T02:46:51.720Z,18.430786
2022-08-18T02:48:00.470Z,18.400574
2022-08-18T02:49:10.261Z,18.380432
2022-08-18T02:50:20.013Z,18.380432
2022-08-18T02:51:27.775Z,18.35022
2022-08-18T02:52:37.602Z,18.370361
2022-08-18T02:53:47.396Z,18.370361
2022-08-18T02:54:57.171Z,18.35022
2022-08-18T02:56:06.964Z,18.35022
2022-08-18T02:57:15.709Z,18.340149
2022-08-18T02:58:27.445Z,18.340149
2022-08-18T02:59:35.382Z,18.340149
2022-08-18T03:00:46.150Z,18.330078
2022-08-18T03:01:56.044Z,18.340149
2022-08-18T03:03:03.695Z,18.340149
2022-08-18T03:04:13.524Z,18.330078
2022-08-18T03:05:22.284Z,18.309937
2022-08-18T03:06:32.022Z,18.289795
2022-08-18T03:07:41.785Z,18.289795
2022-08-18T03:08:50.508Z,18.259583
2022-08-18T03:10:32.243Z,18.259583
2022-08-18T03:11:11.254Z,18.249512
2022-08-18T03:12:20.012Z,18.22937
2022-08-18T03:13:30.728Z,18.22937
2022-08-18T03:14:40.490Z,18.219299
2022-08-18T03:15:52.219Z,18.22937
2022-08-18T03:16:59.028Z,18.219299
2022-08-18T03:18:06.764Z,18.199158
2022-08-18T03:19:17.604Z,18.219299
2022-08-18T03:20:29.920Z,18.189087
2022-08-18T03:21:35.191Z,18.189087
2022-08-18T03:22:45.931Z,18.179016
2022-08-18T03:24:01.090Z,18.189087
2022-08-18T03:25:05.447Z,18.158875
2022-08-18T03:26:14.250Z,18.148804
2022-08-18T03:27:23.040Z,18.158875
2022-08-18T03:28:32.807Z,18.128662
2022-08-18T03:29:42.644Z,18.108521
2022-08-18T03:30:50.461Z,18.108521
2022-08-18T03:32:00.162Z,18.09845
2022-08-18T03:33:08.063Z,18.09845
2022-08-18T03:34:16.849Z,18.09845
2022-08-18T03:35:26.595Z,18.078308
2022-08-18T03:36:34.304Z,18.068237
2022-08-18T03:37:44.092Z,18.068237
2022-08-18T03:38:53.191Z,18.068237
2022-08-18T03:40:00.715Z,18.048096
2022-08-18T03:41:10.433Z,18.038025
2022-08-18T03:42:21.207Z,18.048096
2022-08-18T03:43:50.403Z,18.038025
2022-08-18T03:44:40.830Z,18.048096
2022-08-18T03:45:49.562Z,18.038025
2022-08-18T03:46:58.395Z,18.038025
2022-08-18T03:48:08.081Z,18.027954
2022-08-18T03:49:15.919Z,18.007812
2022-08-18T03:50:25.698Z,17.9776
2022-08-18T03:51:35.458Z,17.967529
2022-08-18T03:52:44.217Z,17.937317
2022-08-18T03:53:54.036Z,17.937317
2022-08-18T03:55:02.826Z,17.897034
2022-08-18T03:56:11.540Z,17.917175
2022-08-18T03:57:21.403Z,17.897034
2022-08-18T03:58:32.156Z,17.886963
2022-08-18T03:59:41.932Z,17.85675
2022-08-18T04:00:51.773Z,17.85675
2022-08-18T04:01:59.588Z,17.84668
2022-08-18T04:03:09.255Z,17.826538
2022-08-18T04:04:17.046Z,17.816467
2022-08-18T04:05:25.779Z,17.796326
2022-08-18T04:06:35.511Z,17.786255
2022-08-18T04:07:45.363Z,17.786255
2022-08-18T04:08:55.101Z,17.786255
2022-08-18T04:10:03.955Z,17.776184
2022-08-18T04:11:14.675Z,17.735901
2022-08-18T04:12:24.398Z,17.735901
2022-08-18T04:13:32.185Z,17.715759
2022-08-18T04:14:41.925Z,17.735901
2022-08-18T04:15:51.666Z,17.715759
2022-08-18T04:17:01.434Z,17.715759
2022-08-18T04:18:11.288Z,17.715759
2022-08-18T04:19:25.224Z,17.715759
2022-08-18T04:20:29.646Z,17.715759
2022-08-18T04:21:40.408Z,17.715759
2022-08-18T04:22:48.158Z,17.756042
2022-08-18T04:23:56.910Z,17.756042
2022-08-18T04:25:06.723Z,17.756042
2022-08-18T04:26:17.204Z,17.715759
2022-08-18T04:27:25.246Z,17.735901
2022-08-18T04:28:34.982Z,17.735901
2022-08-18T04:29:42.729Z,17.715759
2022-08-18T04:30:52.515Z,17.715759
2022-08-18T04:32:01.242Z,17.705688
2022-08-18T04:33:10.033Z,17.705688
2022-08-18T04:34:19.786Z,17.705688
2022-08-18T04:35:27.665Z,17.715759
2022-08-18T04:36:37.638Z,17.735901
2022-08-18T04:37:46.261Z,17.776184
2022-08-18T04:38:54.209Z,17.786255
2022-08-18T04:40:03.810Z,17.826538
2022-08-18T04:41:13.507Z,17.85675
2022-08-18T04:42:22.313Z,17.85675
2022-08-18T04:43:32.132Z,17.866821
2022-08-18T04:44:38.893Z,17.866821
2022-08-18T04:45:48.663Z,17.886963
2022-08-18T04:46:57.441Z,17.886963
2022-08-18T04:48:06.283Z,17.897034
2022-08-18T04:49:16.086Z,17.937317
2022-08-18T04:50:23.900Z,17.937317
2022-08-18T04:52:21.971Z,17.967529
2022-08-18T04:52:43.540Z,17.9776
2022-08-18T04:53:51.443Z,17.997742
2022-08-18T04:55:01.325Z,18.038025
2022-08-18T04:56:10.148Z,18.048096
2022-08-18T04:57:19.929Z,18.078308
2022-08-18T04:58:29.730Z,18.078308
2022-08-18T04:59:36.470Z,18.09845
2022-08-18T05:00:46.337Z,18.148804
2022-08-18T05:01:54.100Z,18.158875
2022-08-18T05:03:03.896Z,18.189087
2022-08-18T05:04:13.759Z,18.219299
2022-08-18T05:05:21.613Z,18.259583
2022-08-18T05:06:31.375Z,18.289795
2022-08-18T05:07:41.148Z,18.330078
2022-08-18T05:08:49.938Z,18.340149
2022-08-18T05:09:59.812Z,18.380432
2022-08-18T05:11:08.686Z,18.410645
2022-08-18T05:12:20.384Z,18.440857
2022-08-18T05:13:30.158Z,18.471069
2022-08-18T05:14:39.913Z,18.521423
2022-08-18T05:16:09.314Z,18.531494
2022-08-18T05:17:00.481Z,18.60199
2022-08-18T05:18:10.251Z,18.632202
2022-08-18T05:19:20.016Z,18.662415
2022-08-18T05:20:30.722Z,18.702698
2022-08-18T05:21:39.522Z,18.712769
2022-08-18T05:22:50.302Z,18.742981
2022-08-18T05:23:59.083Z,18.753052
2022-08-18T05:25:08.842Z,18.863831
2022-08-18T05:26:17.589Z,18.924255
2022-08-18T05:27:25.286Z,18.994751
2022-08-18T05:28:35.036Z,19.065247
2022-08-18T05:29:45.648Z,19.115601
2022-08-18T05:30:53.512Z,19.155884
2022-08-18T05:32:03.228Z,19.206238
2022-08-18T05:33:12.948Z,19.256592
2022-08-18T05:34:22.717Z,19.286804
2022-08-18T05:35:31.461Z,19.337158
2022-08-18T05:36:39.217Z,19.337158
2022-08-18T05:37:49.014Z,19.337158
2022-08-18T05:38:57.703Z,19.3573
2022-08-18T05:40:10.486Z,19.397583
2022-08-18T05:41:17.149Z,19.468079
2022-08-18T05:42:25.886Z,19.518433
2022-08-18T05:43:34.703Z,19.578857
2022-08-18T05:44:45.382Z,19.639282
2022-08-18T05:45:54.170Z,19.699707
2022-08-18T05:47:03.932Z,19.73999
2022-08-18T05:48:13.645Z,19.810486
2022-08-18T05:49:22.318Z,19.86084
2022-08-18T05:50:32.025Z,19.911194
2022-08-18T05:51:39.728Z,19.951477
2022-08-18T05:52:49.425Z,19.961548
2022-08-18T05:53:59.172Z,20.021973
2022-08-18T05:55:06.911Z,20.001831
2022-08-18T05:56:16.627Z,19.99176
2022-08-18T05:57:25.439Z,19.961548
2022-08-18T05:58:34.228Z,20.021973
2022-08-18T05:59:43.942Z,20.042114
2022-08-18T06:00:57.432Z,20.042114
2022-08-18T06:02:03.409Z,20.072327
2022-08-18T06:03:13.344Z,20.11261
2022-08-18T06:04:21.985Z,20.142822
2022-08-18T06:05:31.734Z,20.193176
2022-08-18T06:06:43.038Z,20.223389
2022-08-18T06:07:50.370Z,20.283813
2022-08-18T06:08:59.920Z,20.324097
2022-08-18T06:10:07.720Z,20.394592
2022-08-18T06:11:17.178Z,20.434875
2022-08-18T06:12:26.235Z,20.505371
2022-08-18T06:13:34.956Z,20.515442
2022-08-18T06:14:44.865Z,20.575867
2022-08-18T06:15:53.611Z,20.596008
2022-08-18T06:17:02.308Z,20.626221
2022-08-18T06:18:12.126Z,20.686646
2022-08-18T06:19:21.948Z,20.737
2022-08-18T06:20:31.650Z,20.74707
2022-08-18T06:21:40.401Z,20.767212
2022-08-18T06:22:52.156Z,20.777283
2022-08-18T06:23:57.915Z,20.767212
2022-08-18T06:25:05.635Z,20.767212
2022-08-18T06:26:14.411Z,20.777283
2022-08-18T06:27:24.121Z,20.797424
2022-08-18T06:28:32.832Z,20.817566
2022-08-18T06:29:42.555Z,20.837708
2022-08-18T06:30:52.300Z,20.837708
2022-08-18T06:32:00.029Z,20.847778
2022-08-18T06:33:09.759Z,20.898132
2022-08-18T06:34:18.438Z,20.898132
2022-08-18T06:35:28.209Z,20.928345
2022-08-18T06:36:37.906Z,20.928345
2022-08-18T06:37:45.666Z,20.928345
2022-08-18T06:38:55.392Z,20.918274
2022-08-18T06:40:04.180Z,20.928345
2022-08-18T06:41:40.386Z,20.918274
2022-08-18T06:42:23.475Z,20.948486
2022-08-18T06:43:32.362Z,20.958557
2022-08-18T06:44:41.070Z,20.958557
2022-08-18T06:45:50.759Z,20.958557
2022-08-18T06:46:59.500Z,20.98877
2022-08-18T06:48:12.685Z,20.99884
2022-08-18T06:49:18.921Z,20.99884
2022-08-18T06:50:27.623Z,20.968628
2022-08-18T06:51:40.201Z,21.018982
2022-08-18T06:52:45.972Z,21.018982
2022-08-18T06:53:54.699Z,21.029053
2022-08-18T06:55:04.408Z,21.059265
2022-08-18T06:56:26.116Z,21.089478
2022-08-18T06:57:24.823Z,21.11969
2022-08-18T06:58:34.496Z,21.139832
2022-08-18T06:59:44.381Z,21.170044
2022-08-18T07:00:55.189Z,21.149902
2022-08-18T07:02:00.916Z,21.180115
2022-08-18T07:03:10.583Z,21.210327
2022-08-18T07:04:18.366Z,21.210327
2022-08-18T07:05:27.118Z,21.220398
2022-08-18T07:06:36.957Z,21.270752
2022-08-18T07:07:45.627Z,21.331177
2022-08-18T07:08:55.284Z,21.351318
2022-08-18T07:10:03.994Z,21.401672
2022-08-18T07:11:12.733Z,21.401672
2022-08-18T07:12:22.437Z,21.462097
2022-08-18T07:13:32.127Z,21.542664
2022-08-18T07:14:41.940Z,21.582947
2022-08-18T07:15:51.808Z,21.572876
2022-08-18T07:17:00.249Z,21.582947
2022-08-18T07:18:09.412Z,21.613159
2022-08-18T07:19:18.160Z,21.62323
2022-08-18T07:20:26.032Z,21.663513
2022-08-18T07:21:35.748Z,21.723938
2022-08-18T07:22:44.876Z,21.75415
2022-08-18T07:24:07.798Z,21.794434
2022-08-18T07:25:05.434Z,21.734009
2022-08-18T07:26:11.771Z,21.693726
2022-08-18T07:27:21.437Z,21.723938
2022-08-18T07:28:30.082Z,21.75415
2022-08-18T07:29:37.772Z,21.774292
2022-08-18T07:31:06.620Z,21.854858
2022-08-18T07:31:59.099Z,21.915283
2022-08-18T07:33:07.779Z,21.985779
2022-08-18T07:34:17.458Z,22.106628
2022-08-18T07:35:26.258Z,22.227478
2022-08-18T07:36:36.012Z,22.37854
2022-08-18T07:37:44.699Z,22.469177
2022-08-18T07:38:52.389Z,22.469177
2022-08-18T07:40:02.135Z,22.449036
2022-08-18T07:41:10.787Z,22.539673
2022-08-18T07:42:31.985Z,22.690735
2022-08-18T07:43:31.056Z,22.872009
2022-08-18T07:44:38.728Z,23.093567
2022-08-18T07:45:48.423Z,23.335266
2022-08-18T07:46:57.146Z,23.576965
2022-08-18T07:48:15.646Z,23.738098
2022-08-18T07:49:18.215Z,23.798523
2022-08-18T07:50:42.101Z,23.869019
2022-08-18T07:51:37.191Z,23.989868
2022-08-18T07:52:46.990Z,24.030151
2022-08-18T07:53:56.046Z,24.110718
2022-08-18T07:55:04.828Z,24.281921
2022-08-18T07:56:13.526Z,24.402771
2022-08-18T07:57:21.423Z,24.483337
2022-08-18T07:58:31.172Z,24.573975
2022-08-18T07:59:39.848Z,24.614258
2022-08-18T08:00:58.495Z,24.684753
2022-08-18T08:02:00.213Z,24.735107
2022-08-18T08:03:08.857Z,24.775391
2022-08-18T08:04:25.194Z,24.845886
2022-08-18T08:05:28.206Z,24.835815
2022-08-18T08:06:35.935Z,24.906311
2022-08-18T08:07:46.599Z,24.876099
2022-08-18T08:08:54.242Z,24.926453
2022-08-18T08:10:02.922Z,24.986877
2022-08-18T08:11:12.610Z,25.067444
2022-08-18T08:12:21.263Z,25.137939
2022-08-18T08:13:51.681Z,25.127869
2022-08-18T08:14:41.592Z,24.956665
2022-08-18T08:15:49.290Z,24.886169
2022-08-18T08:16:58.950Z,24.986877
2022-08-18T08:18:07.637Z,25.107727
2022-08-18T08:19:16.308Z,25.319214
2022-08-18T08:20:31.988Z,25.591125
2022-08-18T08:21:36.722Z,25.873108
2022-08-18T08:22:46.397Z,26.054382
2022-08-18T08:23:55.080Z,26.255798
2022-08-18T08:25:02.740Z,26.376648
2022-08-18T08:26:13.403Z,26.447144
2022-08-18T08:27:22.107Z,26.507568
2022-08-18T08:28:30.788Z,26.52771
2022-08-18T08:29:40.479Z,26.477356
2022-08-18T08:30:48.152Z,26.40686
2022-08-18T08:31:58.809Z,26.356506
2022-08-18T08:33:07.505Z,26.225586
2022-08-18T08:34:15.226Z,26.205444
2022-08-18T08:35:47.430Z,26.205444
2022-08-18T08:36:35.532Z,26.15509
2022-08-18T08:37:44.184Z,26.14502
2022-08-18T08:38:54.891Z,26.074524
2022-08-18T08:40:02.659Z,26.064453
2022-08-18T08:41:12.231Z,25.90332
2022-08-18T08:42:29.898Z,25.802612
2022-08-18T08:43:31.562Z,25.691833
2022-08-18T08:44:58.003Z,25.681763
2022-08-18T08:45:50.935Z,25.661621
2022-08-18T08:46:59.588Z,25.65155
2022-08-18T08:48:09.847Z,25.661621
2022-08-18T08:49:17.899Z,25.782471
2022-08-18T08:50:27.635Z,25.752258
2022-08-18T08:51:37.336Z,25.802612
2022-08-18T08:52:45.992Z,25.842896
2022-08-18T08:53:56.753Z,25.722046
2022-08-18T08:55:04.424Z,25.661621
2022-08-18T08:56:14.157Z,25.722046
2022-08-18T08:57:21.825Z,25.802612
2022-08-18T08:58:30.479Z,25.933533
2022-08-18T08:59:40.168Z,26.074524
2022-08-18T09:00:47.831Z,26.205444
2022-08-18T09:01:57.642Z,26.366577
2022-08-18T09:03:06.217Z,26.698914
2022-08-18T09:04:13.957Z,27.001038
2022-08-18T09:05:23.555Z,27.001038
2022-08-18T09:06:31.269Z,26.970825
2022-08-18T09:07:40.954Z,27.121887
2022-08-18T09:08:50.635Z,27.172241
2022-08-18T09:09:59.318Z,27.474365
2022-08-18T09:11:09.031Z,27.66571
2022-08-18T09:12:17.748Z,27.776489
2022-08-18T09:13:28.962Z,27.867126
2022-08-18T09:14:35.088Z,27.746277
2022-08-18T09:15:43.755Z,27.635498
2022-08-18T09:16:53.421Z,27.575073
2022-08-18T09:18:03.126Z,27.625427
2022-08-18T09:19:11.813Z,27.635498
2022-08-18T09:20:21.513Z,27.524719
2022-08-18T09:21:31.191Z,27.625427
2022-08-18T09:22:39.859Z,27.776489
2022-08-18T09:23:49.556Z,28.098755
2022-08-18T09:24:57.241Z,28.249817
2022-08-18T09:26:05.920Z,28.421021
2022-08-18T09:27:15.613Z,28.763428
2022-08-18T09:28:24.272Z,29.005127
2022-08-18T09:29:33.940Z,29.156189
2022-08-18T09:30:43.604Z,29.065552
2022-08-18T09:31:53.273Z,28.91449
2022-08-18T09:33:03.947Z,28.864136
2022-08-18T09:34:14.597Z,29.035339
2022-08-18T09:35:23.281Z,29.005127
2022-08-18T09:36:32.968Z,29.16626
2022-08-18T09:37:42.650Z,29.357605
2022-08-18T09:38:52.306Z,29.589233
2022-08-18T09:40:10.797Z,29.659729
2022-08-18T09:41:12.663Z,29.710083
2022-08-18T09:42:22.337Z,29.820862
2022-08-18T09:43:31.990Z,29.871216
2022-08-18T09:44:40.642Z,29.538879
2022-08-18T09:45:50.310Z,29.226685
2022-08-18T09:46:59.006Z,29.035339
2022-08-18T09:48:08.878Z,28.974915
2022-08-18T09:49:19.317Z,28.944702
2022-08-18T09:50:27.956Z,29.005127
2022-08-18T09:51:39.886Z,29.266968
2022-08-18T09:52:47.310Z,29.569092
2022-08-18T09:53:57.101Z,29.760437
2022-08-18T09:55:06.819Z,29.569092
2022-08-18T09:56:15.496Z,29.659729
2022-08-18T09:57:26.166Z,29.810791
2022-08-18T09:58:35.833Z,29.760437
2022-08-18T09:59:45.533Z,29.871216
2022-08-18T10:00:55.225Z,30.062561
2022-08-18T10:02:04.908Z,30.314331
2022-08-18T10:03:14.564Z,30.314331
2022-08-18T10:04:29.045Z,30.374756
2022-08-18T10:05:34.975Z,30.183411
2022-08-18T10:06:48.678Z,30.002136
2022-08-18T10:07:54.345Z,30.022278
2022-08-18T10:09:14.530Z,29.931641
2022-08-18T10:10:56.980Z,30.032349
2022-08-18T10:11:25.353Z,29.911499
2022-08-18T10:12:35.011Z,30.153198
2022-08-18T10:13:49.080Z,30.213623
2022-08-18T10:14:53.355Z,30.243835
2022-08-18T10:16:05.424Z,30.324402
2022-08-18T10:17:22.039Z,29.931641
2022-08-18T10:18:23.322Z,29.790649
2022-08-18T10:19:33.906Z,29.911499
2022-08-18T10:20:43.733Z,30.082703
2022-08-18T10:21:53.712Z,29.971924
2022-08-18T10:23:03.146Z,30.002136
2022-08-18T10:24:32.507Z,30.062561
2022-08-18T10:25:23.600Z,30.062561
2022-08-18T10:26:32.158Z,30.022278
2022-08-18T10:27:41.860Z,29.750366
2022-08-18T10:28:51.922Z,29.629517
2022-08-18T10:30:00.342Z,29.538879
2022-08-18T10:31:11.045Z,29.41803
2022-08-18T10:32:21.712Z,29.317322
2022-08-18T10:33:31.382Z,29.035339
2022-08-18T10:34:49.215Z,29.226685
2022-08-18T10:35:51.772Z,29.649658
2022-08-18T10:36:59.650Z,29.861145
2022-08-18T10:38:10.088Z,29.941711
2022-08-18T10:39:18.784Z,30.022278
2022-08-18T10:40:28.130Z,30.062561
2022-08-18T10:41:38.115Z,30.092773
2022-08-18T10:42:46.821Z,30.284119
2022-08-18T10:43:57.800Z,30.344543
2022-08-18T10:45:07.268Z,30.586243
2022-08-18T10:46:26.105Z,30.878296
2022-08-18T10:47:33.310Z,31.029358
2022-08-18T10:48:37.254Z,31.170349
2022-08-18T10:49:47.017Z,30.727234
2022-08-18T10:50:57.618Z,30.747375
2022-08-18T10:52:06.296Z,30.697021
2022-08-18T10:53:38.639Z,30.646667
2022-08-18T10:54:25.596Z,30.646667
2022-08-18T10:55:43.351Z,30.455322
2022-08-18T10:56:45.876Z,30.354614
2022-08-18T10:57:56.676Z,29.951782
2022-08-18T10:59:06.375Z,29.931641
2022-08-18T11:00:17.027Z,30.183411
2022-08-18T11:01:26.692Z,30.455322
2022-08-18T11:03:50.878Z,30.717163
2022-08-18T11:04:58.474Z,30.67688
2022-08-18T11:06:04.322Z,30.606384
2022-08-18T11:07:14.976Z,30.404968
2022-08-18T11:08:24.647Z,30.153198
2022-08-18T11:09:34.328Z,30.022278
2022-08-18T11:10:50.870Z,30.032349
2022-08-18T11:11:59.252Z,30.062561
2022-08-18T11:13:07.647Z,30.032349
2022-08-18T11:14:14.970Z,29.861145
2022-08-18T11:15:23.981Z,29.730225
2022-08-18T11:16:33.314Z,29.629517
2022-08-18T11:17:43.023Z,29.488525
2022-08-18T11:18:52.818Z,29.438171
2022-08-18T11:20:01.306Z,29.256897
2022-08-18T11:21:13.598Z,29.075623
2022-08-18T11:22:24.341Z,28.964844
2022-08-18T11:23:31.334Z,28.91449
2022-08-18T11:24:40.990Z,28.562012
2022-08-18T11:25:50.656Z,28.41095
2022-08-18T11:27:00.346Z,28.41095
2022-08-18T11:28:10.021Z,28.572083
2022-08-18T11:29:19.679Z,28.823853
2022-08-18T11:30:30.393Z,29.065552
2022-08-18T11:31:40.023Z,29.287109
2022-08-18T11:32:51.482Z,29.337463
2022-08-18T11:33:59.494Z,29.498596
2022-08-18T11:35:07.570Z,29.569092
2022-08-18T11:36:17.828Z,29.528809
2022-08-18T11:37:27.484Z,29.569092
2022-08-18T11:38:39.311Z,29.629517
2022-08-18T11:39:48.965Z,29.710083
2022-08-18T11:41:13.283Z,29.679871
2022-08-18T11:42:07.148Z,29.730225
2022-08-18T11:43:21.168Z,29.810791
2022-08-18T11:44:27.510Z,29.901428
2022-08-18T11:45:37.183Z,29.901428
2022-08-18T11:46:47.574Z,29.841003
2022-08-18T11:47:56.504Z,29.820862
2022-08-18T11:49:06.217Z,29.820862
2022-08-18T11:50:16.928Z,29.780579
2022-08-18T11:51:26.954Z,29.689941
2022-08-18T11:52:35.300Z,29.720154
2022-08-18T11:53:44.932Z,29.649658
2022-08-18T11:54:55.737Z,29.528809
2022-08-18T11:56:05.421Z,29.679871
2022-08-18T11:57:16.069Z,29.931641
2022-08-18T11:58:26.745Z,30.102844
2022-08-18T11:59:54.132Z,30.133057
2022-08-18T12:00:46.076Z,30.062561
2022-08-18T12:01:54.891Z,30.002136
2022-08-18T12:03:02.580Z,30.062561
2022-08-18T12:04:12.259Z,30.082703
2022-08-18T12:05:19.920Z,30.133057
2022-08-18T12:06:29.812Z,30.274048
2022-08-18T12:07:37.357Z,30.314331
2022-08-18T12:08:56.908Z,30.344543
2022-08-18T12:10:17.603Z,30.505676
2022-08-18T12:11:26.395Z,30.626526
2022-08-18T12:12:18.951Z,30.878296
2022-08-18T12:13:28.685Z,30.878296
2022-08-18T12:14:37.337Z,30.878296
2022-08-18T12:15:48.004Z,30.878296
2022-08-18T12:16:57.679Z,30.898438
2022-08-18T12:18:07.331Z,30.938721
2022-08-18T12:19:19.545Z,30.958862
2022-08-18T12:20:27.650Z,30.878296
2022-08-18T12:21:35.319Z,30.878296
2022-08-18T12:22:46.055Z,30.999146
2022-08-18T12:23:55.697Z,31.150208
2022-08-18T12:25:04.383Z,31.271057
2022-08-18T12:26:18.896Z,31.391907
2022-08-18T12:27:24.684Z,31.281128
2022-08-18T12:28:34.329Z,31.140137
2022-08-18T12:29:43.426Z,31.05957
2022-08-18T12:30:56.449Z,30.968933
2022-08-18T12:32:01.371Z,30.908508
2022-08-18T12:33:12.172Z,30.697021
2022-08-18T12:34:20.690Z,30.67688
2022-08-18T12:35:30.373Z,30.646667
2022-08-18T12:36:39.140Z,30.697021
2022-08-18T12:38:11.269Z,30.747375
2022-08-18T12:38:59.566Z,30.646667
2022-08-18T12:40:10.311Z,30.374756
2022-08-18T12:41:23.669Z,30.243835
2022-08-18T12:42:30.658Z,30.183411
2022-08-18T12:43:39.320Z,30.153198
2022-08-18T12:44:49.996Z,30.163269
2022-08-18T12:45:57.699Z,30.133057
2022-08-18T12:47:07.366Z,30.213623
2022-08-18T12:48:16.127Z,30.30426
2022-08-18T12:49:26.942Z,30.394897
2022-08-18T12:50:42.753Z,30.455322
2022-08-18T12:51:50.233Z,30.525818
2022-08-18T12:52:57.786Z,30.586243
2022-08-18T12:54:07.513Z,30.354614
2022-08-18T12:55:21.521Z,30.30426
2022-08-18T12:56:25.858Z,30.344543
2022-08-18T12:58:46.179Z,30.354614
2022-08-18T12:59:54.871Z,30.163269
2022-08-18T13:01:03.828Z,30.082703
2022-08-18T13:02:13.193Z,30.153198
2022-08-18T13:03:21.854Z,30.153198
2022-08-18T13:04:32.494Z,29.730225
2022-08-18T13:05:42.462Z,29.689941
2022-08-18T13:06:59.765Z,29.629517
2022-08-18T13:08:04.128Z,29.629517
2022-08-18T13:09:16.159Z,29.689941
2022-08-18T13:10:35.933Z,29.720154
2022-08-18T13:11:34.694Z,29.599304
2022-08-18T13:12:43.364Z,29.649658
2022-08-18T13:13:52.611Z,29.689941
2022-08-18T13:15:02.672Z,29.750366
2022-08-18T13:16:16.285Z,29.841003